createdAt,value
2019-03-29T09:09:07.774Z,100384.70
2019-03-29T09:09:42.366Z,100384.66
2019-03-29T09:10:26.031Z,100387.75
2019-03-29T09:11:00.601Z,100373.70
2019-03-29T09:11:34.462Z,100385.59
2019-03-29T09:12:14.676Z,100385.20
2019-03-29T09:12:45.371Z,100391.70
2019-03-29T09:13:20.289Z,100377.89
2019-03-29T09:13:54.923Z,100394.49
2019-03-29T09:14:31.388Z,100383.98
2019-03-29T09:15:06.364Z,100381.67
2019-03-29T09:15:41.032Z,100382.33
2019-03-29T09:16:15.628Z,100384.05
2019-03-29T09:16:50.262Z,100381.38
2019-03-29T09:17:24.912Z,100381.38
2019-03-29T09:18:00.181Z,100385.56
2019-03-29T09:18:34.920Z,100382.59
2019-03-29T09:19:09.500Z,100381.08
2019-03-29T09:19:44.088Z,100382.05
2019-03-29T09:20:18.703Z,100382.80
2019-03-29T09:20:53.339Z,100376.73
2019-03-29T09:21:27.918Z,100381.75
2019-03-29T09:22:02.498Z,100386.72
2019-03-29T09:22:38.383Z,100386.16
2019-03-29T09:23:13.037Z,100383.31
2019-03-29T09:23:48.041Z,100385.20
2019-03-29T09:24:22.738Z,100385.95
2019-03-29T09:24:57.377Z,100379.66
2019-03-29T09:25:32.040Z,100382.45
2019-03-29T09:26:06.611Z,100374.97
2019-03-29T09:26:41.195Z,100382.32
2019-03-29T09:27:15.839Z,100376.86
2019-03-29T09:27:50.424Z,100374.97
2019-03-29T09:28:25.035Z,100383.29
2019-03-29T09:28:59.618Z,100381.54
2019-03-29T09:29:34.180Z,100374.66
2019-03-29T09:30:08.959Z,100381.41
2019-03-29T09:30:43.509Z,100383.07
2019-03-29T09:31:18.076Z,100378.56
2019-03-29T09:31:52.708Z,100376.22
2019-03-29T09:32:27.322Z,100384.16
2019-03-29T09:33:01.951Z,100320.83
2019-03-29T09:33:36.628Z,100383.21
2019-03-29T09:34:11.279Z,100386.05
2019-03-29T09:34:45.925Z,100378.94
2019-03-29T09:35:20.596Z,100380.63
2019-03-29T09:35:55.189Z,100378.34
2019-03-29T09:36:29.828Z,100382.29
2019-03-29T09:37:04.516Z,100374.94
2019-03-29T09:37:39.210Z,100377.06
2019-03-29T09:38:13.861Z,100373.63
2019-03-29T09:38:48.418Z,100370.90
2019-03-29T09:39:23.038Z,100375.91
2019-03-29T09:39:57.716Z,100373.52
2019-03-29T09:40:32.545Z,100379.45
2019-03-29T09:41:06.421Z,100373.16
2019-03-29T09:41:41.088Z,100377.20
2019-03-29T09:42:28.132Z,100375.45
2019-03-29T09:43:06.152Z,100375.09
2019-03-29T09:43:28.443Z,100378.77
2019-03-29T09:44:03.041Z,100375.68
2019-03-29T09:44:37.616Z,100373.06
2019-03-29T09:45:12.194Z,100374.72
2019-03-29T09:45:46.833Z,100378.41
2019-03-29T09:46:21.437Z,100374.13
2019-03-29T09:46:56.045Z,100374.62
2019-03-29T09:47:37.005Z,100372.70
2019-03-29T09:48:06.962Z,100374.39
2019-03-29T09:48:41.533Z,100374.62
2019-03-29T09:49:16.111Z,100375.45
2019-03-29T09:49:50.717Z,100377.11
2019-03-29T09:50:25.289Z,100378.20
2019-03-29T09:50:59.932Z,100373.58
2019-03-29T09:51:36.052Z,100372.16
2019-03-29T09:52:10.936Z,100369.07
2019-03-29T09:52:45.544Z,100372.16
2019-03-29T09:53:20.101Z,100377.48
2019-03-29T09:53:57.803Z,100374.08
2019-03-29T09:54:31.072Z,100370.37
2019-03-29T09:55:06.557Z,100370.37
2019-03-29T09:55:40.510Z,100372.05
2019-03-29T09:56:15.164Z,100371.23
2019-03-29T09:56:49.749Z,100370.03
2019-03-29T09:57:36.887Z,100379.05
2019-03-29T09:58:01.080Z,100376.20
2019-03-29T09:58:36.043Z,100369.58
2019-03-29T09:59:10.572Z,100368.16
2019-03-29T09:59:44.466Z,100368.38
2019-03-29T10:00:23.297Z,100371.83
2019-03-29T10:00:55.496Z,100372.66
2019-03-29T10:01:30.121Z,100369.58
2019-03-29T10:02:04.893Z,100353.73
2019-03-29T10:02:39.700Z,100367.20
2019-03-29T10:03:14.381Z,100368.28
2019-03-29T10:03:49.052Z,100373.16
2019-03-29T10:04:23.612Z,100365.44
2019-03-29T10:04:57.494Z,100365.31
2019-03-29T10:05:32.058Z,100366.73
2019-03-29T10:06:06.628Z,100364.15
2019-03-29T10:06:41.192Z,100365.58
2019-03-29T10:07:15.767Z,100368.66
2019-03-29T10:07:50.361Z,100366.63
2019-03-29T10:08:25.054Z,100366.03
2019-03-29T10:08:59.644Z,100370.81
2019-03-29T10:09:34.235Z,100372.23
2019-03-29T10:10:09.239Z,100365.34
2019-03-29T10:10:46.470Z,100365.67
2019-03-29T10:11:22.217Z,100365.11
2019-03-29T10:11:57.300Z,100367.96
2019-03-29T10:12:42.666Z,100371.88
2019-03-29T10:13:08.803Z,100368.66
2019-03-29T10:13:43.467Z,100361.53
2019-03-29T10:14:18.392Z,100364.38
2019-03-29T10:14:54.641Z,100364.88
2019-03-29T10:15:29.191Z,100367.37
2019-03-29T10:16:03.832Z,100366.53
2019-03-29T10:16:38.418Z,100363.92
2019-03-29T10:17:13.056Z,100363.92
2019-03-29T10:17:47.589Z,100366.77
2019-03-29T10:18:21.476Z,100363.33
2019-03-29T10:18:56.048Z,100359.91
2019-03-29T10:19:30.717Z,100362.76
2019-03-29T10:20:07.319Z,100361.56
2019-03-29T10:20:42.052Z,100358.72
2019-03-29T10:21:17.313Z,100365.84
2019-03-29T10:21:52.283Z,100358.95
2019-03-29T10:22:26.944Z,100358.95
2019-03-29T10:23:01.521Z,100361.44
2019-03-29T10:23:36.123Z,100363.72
2019-03-29T10:24:10.718Z,100357.42
2019-03-29T10:24:45.336Z,100366.23
2019-03-29T10:25:20.423Z,100359.34
2019-03-29T10:25:58.418Z,100363.02
2019-03-29T10:26:31.385Z,100359.58
2019-03-29T10:27:06.055Z,100361.86
2019-03-29T10:27:40.623Z,100354.14
2019-03-29T10:28:14.499Z,100358.65
2019-03-29T10:28:49.086Z,100362.09
2019-03-29T10:29:23.634Z,100358.65
2019-03-29T10:29:58.252Z,100360.30
2019-03-29T10:30:46.530Z,100360.30
2019-03-29T10:31:31.504Z,100358.87
2019-03-29T10:31:56.625Z,100364.34
2019-03-29T10:32:31.295Z,100362.33
2019-03-29T10:33:06.056Z,100361.39
2019-03-29T10:33:40.720Z,100361.96
2019-03-29T10:34:15.323Z,100357.35
2019-03-29T10:34:49.934Z,100353.08
2019-03-29T10:35:24.584Z,100352.71
2019-03-29T10:35:58.444Z,100349.53
2019-03-29T10:36:33.084Z,100353.44
2019-03-29T10:37:07.636Z,100346.09
2019-03-29T10:37:42.233Z,100348.34
2019-03-29T10:38:18.428Z,100348.34
2019-03-29T10:38:53.362Z,100348.34
2019-03-29T10:39:28.059Z,100347.14
2019-03-29T10:40:02.658Z,100348.34
2019-03-29T10:40:37.219Z,100341.45
2019-03-29T10:41:11.836Z,100347.74
2019-03-29T10:41:46.433Z,100340.61
2019-03-29T10:42:21.058Z,100344.06
2019-03-29T10:42:58.020Z,100344.89
2019-03-29T10:43:31.993Z,100344.30
2019-03-29T10:44:06.581Z,100345.95
2019-03-29T10:44:40.436Z,100342.50
2019-03-29T10:45:15.058Z,100344.19
2019-03-29T10:45:49.609Z,100342.17
2019-03-29T10:46:23.499Z,100337.06
2019-03-29T10:46:58.062Z,100339.32
2019-03-29T10:47:43.058Z,100339.78
2019-03-29T10:48:09.054Z,100333.02
2019-03-29T10:48:43.622Z,100334.55
2019-03-29T10:49:17.522Z,100335.75
2019-03-29T10:49:52.094Z,100336.23
2019-03-29T10:50:26.725Z,100338.13
2019-03-29T10:51:02.667Z,100340.05
2019-03-29T10:51:38.485Z,100335.17
2019-03-29T10:52:13.384Z,100336.00
2019-03-29T10:52:49.192Z,100313.05
2019-03-29T10:53:28.445Z,100333.97
2019-03-29T10:54:02.176Z,100332.55
2019-03-29T10:54:37.924Z,100334.80
2019-03-29T10:55:13.699Z,100331.13
2019-03-29T10:55:49.431Z,100331.73
2019-03-29T10:56:33.815Z,100330.30
2019-03-29T10:57:02.560Z,100333.48
2019-03-29T10:57:38.350Z,100320.09
2019-03-29T10:58:14.220Z,100327.78
2019-03-29T10:58:49.592Z,100331.13
2019-03-29T10:59:27.790Z,100328.51
2019-03-29T11:00:00.899Z,100329.11
2019-03-29T11:00:41.914Z,100321.75
2019-03-29T11:01:16.621Z,100324.83
2019-03-29T11:01:50.536Z,100324.37
2019-03-29T11:02:25.128Z,100324.59
2019-03-29T11:02:59.736Z,100323.63
2019-03-29T11:03:34.428Z,100320.19
2019-03-29T11:04:09.058Z,100324.72
2019-03-29T11:04:43.639Z,100324.46
2019-03-29T11:05:21.103Z,100323.89
2019-03-29T11:05:55.750Z,100326.48
2019-03-29T11:06:30.356Z,100326.75
2019-03-29T11:07:05.065Z,100321.27
2019-03-29T11:07:39.632Z,100321.50
2019-03-29T11:08:14.216Z,100320.68
2019-03-29T11:08:48.788Z,100323.76
2019-03-29T11:09:23.326Z,100321.14
2019-03-29T11:09:58.072Z,100319.72
2019-03-29T11:10:36.169Z,100247.59
2019-03-29T11:11:10.862Z,100313.45
2019-03-29T11:11:45.446Z,100314.61
2019-03-29T11:12:20.068Z,100316.53
2019-03-29T11:12:54.628Z,100307.15
2019-03-29T11:13:28.484Z,100318.55
2019-03-29T11:14:03.369Z,100312.73
2019-03-29T11:14:38.069Z,100319.61
2019-03-29T11:15:12.625Z,100321.03
2019-03-29T11:15:46.520Z,100315.33
2019-03-29T11:16:21.108Z,100315.93
2019-03-29T11:16:57.511Z,100313.67
2019-03-29T11:17:32.087Z,100316.53
2019-03-29T11:18:07.118Z,100318.78
2019-03-29T11:18:45.806Z,100313.31
2019-03-29T11:19:20.066Z,100315.83
2019-03-29T11:19:56.099Z,100316.76
2019-03-29T11:20:30.882Z,100312.71
2019-03-29T11:21:05.749Z,100312.71
2019-03-29T11:21:40.533Z,100316.66
2019-03-29T11:22:15.304Z,100313.20
2019-03-29T11:22:50.164Z,100312.61
2019-03-29T11:23:25.143Z,100311.78
2019-03-29T11:24:00.004Z,100316.05
2019-03-29T11:24:35.097Z,100311.28
2019-03-29T11:25:09.747Z,100311.55
2019-03-29T11:25:48.567Z,100314.97
2019-03-29T11:26:42.937Z,100313.67
2019-03-29T11:27:22.445Z,100311.28
2019-03-29T11:27:58.537Z,100310.34
2019-03-29T11:28:33.400Z,100309.28
2019-03-29T11:29:10.826Z,100299.77
2019-03-29T11:29:45.758Z,100299.41
2019-03-29T11:30:20.778Z,100299.28
2019-03-29T11:30:55.421Z,100297.86
2019-03-29T11:31:30.319Z,100295.48
2019-03-29T11:32:05.283Z,100297.27
2019-03-29T11:32:44.460Z,100294.19
2019-03-29T11:33:19.745Z,100290.62
2019-03-29T11:33:54.566Z,100294.77
2019-03-29T11:34:28.603Z,100295.59
2019-03-29T11:35:02.802Z,100290.72
2019-03-29T11:35:37.893Z,100293.57
2019-03-29T11:36:12.708Z,100289.30
2019-03-29T11:36:47.494Z,100293.23
2019-03-29T11:37:24.082Z,100289.19
2019-03-29T11:37:58.888Z,100284.69
2019-03-29T11:38:33.551Z,100287.77
2019-03-29T11:39:10.836Z,100287.06
2019-03-29T11:39:48.806Z,100284.45
2019-03-29T11:40:26.379Z,100282.66
2019-03-29T11:41:01.207Z,100144.95
2019-03-29T11:41:36.093Z,100283.52
2019-03-29T11:42:11.012Z,100281.23
2019-03-29T11:42:45.845Z,100276.39
2019-03-29T11:43:26.739Z,100279.23
2019-03-29T11:43:58.931Z,100276.02
2019-03-29T11:44:33.604Z,100280.89
2019-03-29T11:45:08.252Z,100276.95
2019-03-29T11:45:43.095Z,100274.83
2019-03-29T11:46:17.648Z,100277.67
2019-03-29T11:46:54.139Z,100277.34
2019-03-29T11:47:28.984Z,100281.35
2019-03-29T11:48:08.948Z,100270.42
2019-03-29T11:48:41.922Z,100274.10
2019-03-29T11:49:16.950Z,100273.54
2019-03-29T11:49:53.381Z,100272.34
2019-03-29T11:50:29.281Z,100269.50
2019-03-29T11:51:18.305Z,100263.80
2019-03-29T11:51:40.951Z,100270.55
2019-03-29T11:52:15.997Z,100265.55
2019-03-29T11:52:50.738Z,100270.09
2019-03-29T11:53:25.469Z,100264.98
2019-03-29T11:54:00.160Z,100266.41
2019-03-29T11:54:34.942Z,100271.85
2019-03-29T11:55:10.037Z,100262.70
2019-03-29T11:55:47.210Z,100261.88
2019-03-29T11:56:22.108Z,100263.56
2019-03-29T11:57:00.743Z,100262.14
2019-03-29T11:57:35.537Z,100262.70
2019-03-29T11:58:09.560Z,100262.59
2019-03-29T11:58:44.149Z,100254.75
2019-03-29T11:59:18.845Z,100257.39
2019-03-29T11:59:53.553Z,100252.15
2019-03-29T12:00:38.250Z,100255.37
2019-03-29T12:01:13.148Z,100200.95
2019-03-29T12:01:47.869Z,100254.28
2019-03-29T12:02:31.036Z,100259.88
2019-03-29T12:02:59.268Z,100257.84
2019-03-29T12:03:35.702Z,100251.32
2019-03-29T12:04:10.595Z,100241.33
2019-03-29T12:04:44.697Z,100241.33
2019-03-29T12:05:19.463Z,100250.00
2019-03-29T12:05:54.208Z,100247.41
2019-03-29T12:06:30.078Z,100243.61
2019-03-29T12:07:08.515Z,100242.42
2019-03-29T12:07:43.266Z,100242.42
2019-03-29T12:08:17.909Z,100244.66
2019-03-29T12:08:52.553Z,100245.25
2019-03-29T12:09:27.305Z,100240.98
2019-03-29T12:10:02.222Z,100239.22
2019-03-29T12:10:39.820Z,100237.53
2019-03-29T12:11:14.640Z,100232.43
2019-03-29T12:11:48.944Z,100239.69
2019-03-29T12:12:23.791Z,100236.95
2019-03-29T12:13:00.335Z,100232.30
2019-03-29T12:13:41.393Z,100233.39
2019-03-29T12:14:11.601Z,100231.14
2019-03-29T12:14:46.293Z,100230.31
2019-03-29T12:15:21.182Z,100228.52
2019-03-29T12:15:56.085Z,100224.84
2019-03-29T12:16:30.957Z,100230.05
2019-03-29T12:17:05.991Z,100228.17
2019-03-29T12:17:41.181Z,100225.19
2019-03-29T12:18:16.131Z,100222.23
2019-03-29T12:18:51.052Z,100223.65
2019-03-29T12:19:25.804Z,100221.03
2019-03-29T12:20:02.312Z,100218.19
2019-03-29T12:20:37.089Z,100221.86
2019-03-29T12:21:13.632Z,100219.87
2019-03-29T12:21:48.429Z,100219.61
2019-03-29T12:22:23.097Z,100221.03
2019-03-29T12:22:57.793Z,100218.78
2019-03-29T12:23:35.307Z,100218.19
2019-03-29T12:24:10.180Z,100219.01
2019-03-29T12:24:44.857Z,100010.95
2019-03-29T12:25:19.729Z,100217.35
2019-03-29T12:25:54.576Z,100212.85
2019-03-29T12:26:28.672Z,100210.23
2019-03-29T12:27:03.358Z,100212.25
2019-03-29T12:27:38.343Z,100209.41
2019-03-29T12:28:13.169Z,100205.95
2019-03-29T12:28:47.858Z,100208.21
2019-03-29T12:29:22.506Z,100204.53
2019-03-29T12:29:59.944Z,100203.48
2019-03-29T12:30:34.511Z,100204.90
2019-03-29T12:31:09.262Z,100202.05
2019-03-29T12:31:45.758Z,100206.55
2019-03-29T12:32:20.597Z,100206.55
2019-03-29T12:32:55.535Z,100207.38
2019-03-29T12:33:30.324Z,100206.55
2019-03-29T12:34:05.094Z,100209.41
2019-03-29T12:34:39.817Z,100202.65
2019-03-29T12:35:14.884Z,100198.59
2019-03-29T12:35:51.618Z,100203.72
2019-03-29T12:36:25.617Z,100202.41
2019-03-29T12:36:59.697Z,100197.87
2019-03-29T12:37:34.777Z,100197.30
2019-03-29T12:38:09.540Z,100196.78
2019-03-29T12:38:44.442Z,100196.66
2019-03-29T12:39:19.086Z,100195.50
2019-03-29T12:39:54.132Z,100197.16
2019-03-29T12:40:31.535Z,100191.56
2019-03-29T12:41:08.088Z,100193.95
2019-03-29T12:41:47.195Z,100191.34
2019-03-29T12:42:27.075Z,100187.90
2019-03-29T12:43:06.416Z,100177.91
2019-03-29T12:43:55.340Z,100191.55
2019-03-29T12:44:28.602Z,100187.28
2019-03-29T12:45:09.796Z,100183.01
2019-03-29T12:45:48.951Z,100179.94
2019-03-29T12:46:32.388Z,100182.55
2019-03-29T12:47:12.690Z,100179.70
2019-03-29T12:47:53.191Z,100178.98
2019-03-29T12:48:33.374Z,100178.75
2019-03-29T12:49:15.250Z,100179.95
2019-03-29T12:49:55.326Z,100174.58
2019-03-29T12:50:37.206Z,100184.92
2019-03-29T12:51:21.113Z,100183.72
2019-03-29T12:52:00.722Z,100178.52
2019-03-29T12:52:40.247Z,100175.53
2019-03-29T12:53:20.762Z,100176.61
2019-03-29T12:54:00.311Z,100174.93
2019-03-29T12:54:40.674Z,100177.19
2019-03-29T12:55:24.954Z,100176.13
2019-03-29T12:56:04.334Z,100175.19
2019-03-29T12:56:44.679Z,100174.24
2019-03-29T12:57:25.223Z,100171.14
2019-03-29T12:58:06.907Z,100171.14
2019-03-29T12:58:46.556Z,100174.22
2019-03-29T12:59:25.587Z,100180.04
2019-03-29T13:00:07.130Z,100174.94
2019-03-29T13:00:46.677Z,100172.33
2019-03-29T13:01:39.253Z,100173.16
2019-03-29T13:02:11.572Z,100171.27
2019-03-29T13:02:50.209Z,100179.55
2019-03-29T13:03:30.929Z,100174.45
2019-03-29T13:04:10.282Z,100164.75
2019-03-29T13:04:48.451Z,100168.75
2019-03-29T13:05:25.987Z,100168.52
2019-03-29T13:06:04.312Z,100163.07
2019-03-29T13:06:45.061Z,100159.52
2019-03-29T13:07:25.112Z,100163.42
2019-03-29T13:08:05.263Z,100161.04
2019-03-29T13:08:42.618Z,100160.47
2019-03-29T13:09:18.930Z,100157.14
2019-03-29T13:09:57.125Z,100163.20
2019-03-29T13:10:35.624Z,100152.76
2019-03-29T13:11:15.853Z,100158.58
2019-03-29T13:11:51.921Z,100157.61
2019-03-29T13:12:31.890Z,100160.81
2019-03-29T13:13:13.839Z,100155.84
2019-03-29T13:14:10.163Z,100152.52
2019-03-29T13:14:39.322Z,100154.17
2019-03-29T13:15:16.331Z,100149.20
2019-03-29T13:15:51.395Z,100152.27
2019-03-29T13:16:27.519Z,100154.79
2019-03-29T13:17:02.891Z,100155.02
2019-03-29T13:17:39.587Z,100151.94
2019-03-29T13:18:14.150Z,100145.87
2019-03-29T13:18:48.768Z,100151.57
2019-03-29T13:19:23.559Z,100156.08
2019-03-29T13:19:58.324Z,100146.93
2019-03-29T13:20:32.996Z,100148.02
2019-03-29T13:21:07.774Z,100146.59
2019-03-29T13:21:42.589Z,100146.59
2019-03-29T13:22:17.296Z,100141.95
2019-03-29T13:22:52.143Z,100144.20
2019-03-29T13:23:26.780Z,100141.02
2019-03-29T13:24:01.632Z,100141.84
2019-03-29T13:24:35.727Z,100135.55
2019-03-29T13:25:13.224Z,100141.25
2019-03-29T13:25:49.819Z,100133.30
2019-03-29T13:26:26.382Z,100133.91
2019-03-29T13:27:02.338Z,100134.13
2019-03-29T13:27:39.331Z,100128.66
2019-03-29T13:28:16.449Z,100130.31
2019-03-29T13:28:54.088Z,100125.22
2019-03-29T13:29:29.320Z,100122.86
2019-03-29T13:30:05.950Z,100128.55
2019-03-29T13:30:41.146Z,100120.23
2019-03-29T13:31:15.788Z,100119.41
2019-03-29T13:31:52.821Z,100121.30
2019-03-29T13:32:28.997Z,100115.59
2019-03-29T13:33:05.021Z,100119.27
2019-03-29T13:33:42.346Z,100116.69
2019-03-29T13:34:20.235Z,100113.84
2019-03-29T13:34:57.583Z,100110.16
2019-03-29T13:35:38.344Z,100108.48
2019-03-29T13:36:17.764Z,100111.22
2019-03-29T13:36:57.735Z,100106.45
2019-03-29T13:37:37.993Z,100106.00
2019-03-29T13:38:20.474Z,100111.33
2019-03-29T13:38:59.478Z,100106.72
2019-03-29T13:39:40.177Z,100106.12
2019-03-29T13:40:21.082Z,100104.23
2019-03-29T13:40:59.607Z,100102.66
2019-03-29T13:41:38.941Z,100100.19
2019-03-29T13:42:18.884Z,100101.25
2019-03-29T13:42:57.978Z,100100.88
2019-03-29T13:43:39.968Z,100099.22
2019-03-29T13:44:23.996Z,100092.70
2019-03-29T13:45:02.060Z,100091.50
2019-03-29T13:45:42.584Z,100094.02
2019-03-29T13:46:21.748Z,100092.22
2019-03-29T13:47:01.556Z,100092.22
2019-03-29T13:47:41.939Z,100096.12
2019-03-29T13:48:22.692Z,100100.40
2019-03-29T13:49:02.181Z,100094.70
2019-03-29T13:49:42.485Z,100096.95
2019-03-29T13:50:21.727Z,100097.20
2019-03-29T13:51:02.416Z,100094.36
2019-03-29T13:51:43.156Z,100086.03
2019-03-29T13:52:22.439Z,100098.86
2019-03-29T13:53:02.886Z,100096.84
2019-03-29T13:53:41.741Z,100092.56
2019-03-29T13:54:24.069Z,100095.05
2019-03-29T13:55:02.037Z,100092.19
2019-03-29T13:55:37.423Z,100088.52
2019-03-29T13:56:12.111Z,100090.20
2019-03-29T13:56:46.669Z,100084.77
2019-03-29T13:57:20.563Z,100088.44
2019-03-29T13:57:55.138Z,100089.49
2019-03-29T13:58:32.680Z,100085.82
2019-03-29T13:59:07.359Z,100088.89
2019-03-29T13:59:41.985Z,100087.47
2019-03-29T14:00:18.235Z,100084.28
2019-03-29T14:00:52.820Z,100077.16
2019-03-29T14:01:27.520Z,100081.44
2019-03-29T14:02:02.139Z,100078.36
2019-03-29T14:02:39.957Z,100074.77
2019-03-29T14:03:14.851Z,100072.28
2019-03-29T14:03:49.605Z,100070.86
2019-03-29T14:04:24.780Z,100068.84
2019-03-29T14:04:59.378Z,100071.09
2019-03-29T14:05:34.141Z,100075.96
2019-03-29T14:06:08.795Z,100074.53
2019-03-29T14:06:43.426Z,100068.23
2019-03-29T14:07:18.115Z,100068.23
2019-03-29T14:07:52.657Z,100067.41
2019-03-29T14:08:26.759Z,100067.90
2019-03-29T14:09:01.624Z,100064.19
2019-03-29T14:09:35.698Z,100057.21
2019-03-29T14:10:10.579Z,100068.35
2019-03-29T14:10:47.942Z,100065.73
2019-03-29T14:11:22.610Z,100067.16
2019-03-29T14:11:56.953Z,100067.41
2019-03-29T14:12:31.669Z,100064.91
2019-03-29T14:13:05.533Z,100067.16
2019-03-29T14:13:40.276Z,100063.48
2019-03-29T14:14:15.319Z,100065.39
2019-03-29T14:14:50.152Z,100059.69
2019-03-29T14:15:25.148Z,100060.52
2019-03-29T14:15:59.949Z,100063.82
2019-03-29T14:16:34.494Z,100061.45
2019-03-29T14:17:09.112Z,100060.85
2019-03-29T14:17:43.791Z,100060.85
2019-03-29T14:18:18.397Z,100056.58
2019-03-29T14:18:53.018Z,100057.63
2019-03-29T14:19:27.643Z,100051.33
2019-03-29T14:20:01.529Z,100050.77
2019-03-29T14:20:36.331Z,100055.49
2019-03-29T14:21:10.960Z,100054.89
2019-03-29T14:21:45.996Z,100049.19
2019-03-29T14:22:20.609Z,100043.27
2019-03-29T14:22:55.259Z,100047.99
2019-03-29T14:23:30.014Z,100050.02
2019-03-29T14:24:04.600Z,100054.55
2019-03-29T14:24:39.273Z,100050.02
2019-03-29T14:25:14.174Z,100050.27
2019-03-29T14:25:48.805Z,100046.23
2019-03-29T14:26:23.423Z,100048.70
2019-03-29T14:26:58.118Z,100049.30
2019-03-29T14:27:32.683Z,100045.85
2019-03-29T14:28:06.550Z,100040.75
2019-03-29T14:28:41.942Z,100046.94
2019-03-29T14:29:18.614Z,100045.85
2019-03-29T14:30:03.732Z,100040.98
2019-03-29T14:30:29.831Z,100039.81
2019-03-29T14:31:04.672Z,100040.03
2019-03-29T14:31:38.636Z,100033.52
2019-03-29T14:32:13.341Z,100035.77
2019-03-29T14:32:48.349Z,100034.56
2019-03-29T14:33:23.427Z,100036.21
2019-03-29T14:33:58.571Z,100041.91
2019-03-29T14:34:33.277Z,100031.33
2019-03-29T14:35:08.948Z,100037.89
2019-03-29T14:35:43.652Z,100035.88
2019-03-29T14:36:18.305Z,100036.70
2019-03-29T14:36:53.125Z,100029.80
2019-03-29T14:37:28.121Z,100038.12
2019-03-29T14:38:03.008Z,100038.46
2019-03-29T14:38:37.727Z,100034.19
2019-03-29T14:39:12.335Z,100034.67
2019-03-29T14:39:46.988Z,100033.47
2019-03-29T14:40:21.987Z,100031.70
2019-03-29T14:40:56.581Z,100031.44
2019-03-29T14:41:31.219Z,100029.80
2019-03-29T14:42:05.951Z,100031.44
2019-03-29T14:42:40.597Z,100026.00
2019-03-29T14:43:15.157Z,100030.27
2019-03-29T14:43:49.793Z,100022.89
2019-03-29T14:44:24.622Z,100025.29
2019-03-29T14:44:59.210Z,100025.06
2019-03-29T14:45:33.822Z,100022.44
2019-03-29T14:46:08.695Z,100024.21
2019-03-29T14:46:43.337Z,100018.28
2019-03-29T14:47:18.166Z,100018.28
2019-03-29T14:47:53.015Z,100031.70
2019-03-29T14:48:27.744Z,100024.21
2019-03-29T14:49:02.724Z,100015.09
2019-03-29T14:49:37.363Z,100022.83
2019-03-29T14:50:12.290Z,100022.83
2019-03-29T14:50:47.177Z,100017.95
2019-03-29T14:51:22.148Z,100014.50
2019-03-29T14:51:57.004Z,100012.48
2019-03-29T14:52:31.917Z,100022.94
2019-03-29T14:53:06.486Z,100015.22
2019-03-29T14:53:41.446Z,100012.02
2019-03-29T14:54:16.196Z,100008.69
2019-03-29T14:54:50.844Z,100006.33
2019-03-29T14:55:25.490Z,100008.09
2019-03-29T14:56:00.230Z,100000.14
2019-03-29T14:56:35.158Z,100005.02
2019-03-29T14:57:09.994Z,100014.88
2019-03-29T14:57:44.727Z,100005.39
2019-03-29T14:58:19.553Z,100002.55
